Time;durP1;ratioP1;P1;durP2;ratioP2;P2;SDS_P1;SDS_P2;PMS_P1;PMS_P2;Temp;Humidity;BMP_temperature;BMP_pressure;BME280_temperature;BME280_humidity;BME280_pressure;Samples;Min_cycle;Max_cycle;Signal;HPM_P1;HPM_P2
2023/06/17 00:01:59;;;;;;;1.70;1.60;;;20.90;63.00;;;;;;4969134;28;20117;-61
2023/06/17 00:04:25;;;;;;;1.88;1.35;;;20.90;63.00;;;;;;4968535;28;20395;-60
2023/06/17 00:06:50;;;;;;;1.88;1.63;;;20.90;63.10;;;;;;4970032;28;20905;-62
2023/06/17 00:09:16;;;;;;;2.40;1.73;;;20.90;63.00;;;;;;4967165;28;20042;-59
2023/06/17 00:11:41;;;;;;;1.85;1.75;;;20.90;63.20;;;;;;4965705;28;20497;-62
2023/06/17 00:14:07;;;;;;;1.92;1.70;;;20.90;62.80;;;;;;4964140;28;20499;-59
2023/06/17 00:16:36;;;;;;;2.28;1.67;;;20.90;62.90;;;;;;4971036;28;20034;-60
2023/06/17 00:19:05;;;;;;;3.47;1.95;;;20.90;62.90;;;;;;4972881;28;20109;-63
2023/06/17 00:21:31;;;;;;;2.20;1.88;;;20.90;62.90;;;;;;4958438;28;20042;-60
2023/06/17 00:23:57;;;;;;;2.70;1.83;;;20.90;63.00;;;;;;4978183;28;20077;-60
2023/06/17 00:26:23;;;;;;;2.25;1.73;;;20.90;63.00;;;;;;4968079;28;20089;-59
2023/06/17 00:28:48;;;;;;;2.17;1.98;;;20.90;62.90;;;;;;4974705;28;20534;-59
2023/06/17 00:31:14;;;;;;;1.92;1.73;;;20.90;63.00;;;;;;4971397;28;20053;-62
2023/06/17 00:33:39;;;;;;;3.00;1.60;;;20.90;63.00;;;;;;4968546;28;20110;-61
2023/06/17 00:36:05;;;;;;;2.20;2.00;;;20.90;63.00;;;;;;4968309;28;20031;-61
2023/06/17 00:38:31;;;;;;;2.08;1.48;;;20.90;63.00;;;;;;4963535;28;20026;-61
2023/06/17 00:40:56;;;;;;;3.20;1.95;;;20.90;63.00;;;;;;4969097;28;20186;-59
2023/06/17 00:43:22;;;;;;;2.33;1.70;;;20.90;62.90;;;;;;4963913;28;20280;-60
2023/06/17 00:45:47;;;;;;;1.85;1.60;;;20.90;63.00;;;;;;4970761;28;20065;-61
2023/06/17 00:48:13;;;;;;;1.30;1.20;;;20.90;63.00;;;;;;4971231;28;20030;-63
2023/06/17 00:50:40;;;;;;;3.05;2.22;;;20.90;63.00;;;;;;4971127;28;20168;-60
2023/06/17 00:53:06;;;;;;;2.17;1.98;;;20.90;63.10;;;;;;4965486;28;20035;-61
2023/06/17 00:55:33;;;;;;;2.72;2.05;;;20.90;63.00;;;;;;4967452;28;20517;-60
2023/06/17 00:58:00;;;;;;;2.28;1.92;;;20.90;63.10;;;;;;4978108;28;20039;-61
2023/06/17 01:00:26;;;;;;;2.10;1.90;;;20.90;63.00;;;;;;4970286;28;20038;-60
2023/06/17 01:02:51;;;;;;;1.75;1.65;;;20.90;63.00;;;;;;4970792;28;20056;-59
2023/06/17 01:05:18;;;;;;;1.48;1.38;;;20.90;63.10;;;;;;4974867;28;20061;-60
2023/06/17 01:07:50;;;;;;;2.15;1.90;;;20.90;63.10;;;;;;4967873;28;20031;-60
2023/06/17 01:10:42;;;;;;;1.77;1.67;;;20.80;63.00;;;;;;4974714;28;20027;-60
2023/06/17 01:13:09;;;;;;;2.67;1.40;;;20.90;63.00;;;;;;4972243;28;20038;-59
2023/06/17 01:15:35;;;;;;;1.92;1.70;;;20.80;62.90;;;;;;4973834;28;20162;-61
2023/06/17 01:18:04;;;;;;;2.17;1.98;;;20.90;63.10;;;;;;4974155;28;20122;-60
2023/06/17 01:20:32;;;;;;;1.60;1.50;;;20.90;63.10;;;;;;4968131;28;20283;-60
2023/06/17 01:22:59;;;;;;;1.63;1.52;;;20.90;63.10;;;;;;4969915;28;20027;-58
2023/06/17 01:25:29;;;;;;;2.10;1.90;;;20.90;63.10;;;;;;4975320;28;20505;-59
2023/06/17 01:27:55;;;;;;;2.33;1.63;;;20.80;63.00;;;;;;4969864;28;20826;-60
2023/06/17 01:30:20;;;;;;;3.70;2.08;;;20.90;63.00;;;;;;4969199;28;20061;-59
2023/06/17 01:32:46;;;;;;;2.42;2.22;;;20.90;63.10;;;;;;4967222;28;20027;-59
2023/06/17 01:35:15;;;;;;;1.88;1.77;;;20.90;63.00;;;;;;4970711;28;20185;-61
2023/06/17 01:38:07;;;;;;;3.13;2.25;;;20.90;63.70;;;;;;4968440;28;20035;-61
2023/06/17 01:40:33;;;;;;;2.53;1.70;;;20.80;63.00;;;;;;4967266;28;20042;-61
2023/06/17 01:43:01;;;;;;;2.13;1.85;;;20.80;63.40;;;;;;4970716;28;20038;-61
2023/06/17 01:45:27;;;;;;;3.53;2.15;;;20.80;63.20;;;;;;4960963;28;20543;-60
2023/06/17 01:47:53;;;;;;;2.22;2.00;;;20.80;63.10;;;;;;4974990;28;20038;-62
2023/06/17 01:50:19;;;;;;;2.58;1.73;;;20.90;63.00;;;;;;4971605;28;20084;-61
2023/06/17 01:52:45;;;;;;;2.40;1.70;;;20.90;63.00;;;;;;4968557;28;20045;-61
2023/06/17 01:55:12;;;;;;;3.80;2.72;;;20.80;63.00;;;;;;4978359;28;20116;-61
2023/06/17 01:57:38;;;;;;;2.15;1.70;;;20.80;63.10;;;;;;4975719;28;20027;-60
2023/06/17 02:00:05;;;;;;;1.50;1.40;;;20.80;63.10;;;;;;4972447;28;20047;-61
2023/06/17 02:02:31;;;;;;;2.20;1.98;;;20.80;63.10;;;;;;4973958;28;20042;-61
2023/06/17 02:04:57;;;;;;;2.22;2.03;;;20.80;63.10;;;;;;4973106;28;20027;-62
2023/06/17 02:07:24;;;;;;;1.85;1.75;;;20.80;63.20;;;;;;4968885;28;20026;-61
2023/06/17 02:09:50;;;;;;;1.95;1.73;;;20.80;63.00;;;;;;4970525;28;20031;-61
2023/06/17 02:12:15;;;;;;;1.98;1.77;;;20.80;63.10;;;;;;4968705;28;20549;-60
2023/06/17 02:14:41;;;;;;;3.00;2.10;;;20.80;63.00;;;;;;4968049;28;20073;-62
2023/06/17 02:17:08;;;;;;;1.90;1.80;;;20.80;63.20;;;;;;4971134;28;20047;-60
2023/06/17 02:19:35;;;;;;;2.03;1.83;;;20.80;63.10;;;;;;4968882;28;20031;-61
2023/06/17 02:22:01;;;;;;;2.22;1.65;;;20.80;63.10;;;;;;4968424;28;20031;-62
2023/06/17 02:24:27;;;;;;;2.20;1.92;;;20.80;63.20;;;;;;4968554;28;20119;-62
2023/06/17 02:26:53;;;;;;;2.15;1.95;;;20.80;63.10;;;;;;4970729;28;20487;-62
2023/06/17 02:29:19;;;;;;;1.90;1.80;;;20.80;63.10;;;;;;4972762;28;20031;-60
2023/06/17 02:31:45;;;;;;;2.10;1.90;;;20.80;63.10;;;;;;4968727;28;20386;-62
2023/06/17 02:34:10;;;;;;;2.10;1.90;;;20.80;63.10;;;;;;4973056;28;20173;-61
2023/06/17 02:36:39;;;;;;;3.83;2.33;;;20.80;63.10;;;;;;4967917;28;20154;-62
2023/06/17 02:39:05;;;;;;;2.38;1.95;;;20.80;63.10;;;;;;4973770;28;20034;-57
2023/06/17 02:41:31;;;;;;;4.05;1.90;;;20.80;63.10;;;;;;4975018;28;20439;-63
2023/06/17 02:43:56;;;;;;;1.75;1.63;;;20.80;63.10;;;;;;4976260;28;20023;-62
2023/06/17 02:46:24;;;;;;;1.90;1.80;;;20.80;63.20;;;;;;4975948;28;20030;-62
2023/06/17 02:48:50;;;;;;;3.13;2.05;;;20.80;63.20;;;;;;4964323;28;20035;-62
2023/06/17 02:51:15;;;;;;;1.77;1.65;;;20.80;63.10;;;;;;4969448;28;20523;-62
2023/06/17 02:53:41;;;;;;;2.25;1.90;;;20.80;63.20;;;;;;4975631;28;20570;-62
2023/06/17 02:56:06;;;;;;;3.40;2.10;;;20.80;63.10;;;;;;4974088;28;20038;-61
2023/06/17 02:58:32;;;;;;;2.15;1.77;;;20.80;63.20;;;;;;4971530;28;20126;-62
2023/06/17 03:00:58;;;;;;;2.10;1.90;;;20.80;63.20;;;;;;4967884;28;20065;-62
2023/06/17 03:03:34;;;;;;;1.73;1.63;;;20.80;63.20;;;;;;4972401;28;20039;-61
2023/06/17 03:06:06;;;;;;;1.80;1.70;;;20.80;63.20;;;;;;4973354;28;20464;-62
2023/06/17 03:08:36;;;;;;;2.88;2.13;;;20.80;63.20;;;;;;4964906;28;20033;-61
2023/06/17 03:11:02;;;;;;;2.10;1.90;;;20.80;63.20;;;;;;4976678;28;20034;-62
2023/06/17 03:13:28;;;;;;;2.13;1.92;;;20.80;63.10;;;;;;4974104;28;20030;-62
2023/06/17 03:15:54;;;;;;;2.20;2.00;;;20.80;63.20;;;;;;4974485;28;20031;-61
2023/06/17 03:18:23;;;;;;;2.13;1.95;;;20.80;63.20;;;;;;4974838;28;20038;-61
2023/06/17 03:20:49;;;;;;;2.20;2.00;;;20.80;63.30;;;;;;4970278;28;20107;-62
2023/06/17 03:23:15;;;;;;;1.90;1.77;;;20.80;63.20;;;;;;4969303;28;20049;-62
2023/06/17 03:25:41;;;;;;;3.42;1.92;;;20.80;63.30;;;;;;4973603;28;20035;-61
2023/06/17 03:28:07;;;;;;;2.30;1.80;;;20.80;63.10;;;;;;4968282;28;20038;-62
2023/06/17 03:30:32;;;;;;;2.75;2.10;;;20.80;63.20;;;;;;4965907;28;20026;-62
2023/06/17 03:35:34;;;;;;;;;;;20.80;63.30;;;;;;5249275;23;20069;-60
2023/06/17 03:38:00;;;;;;;2.25;1.98;;;20.70;63.20;;;;;;4987853;28;19941;-62
2023/06/17 03:40:26;;;;;;;2.22;2.00;;;20.80;63.20;;;;;;4997015;28;20033;-58
2023/06/17 03:42:51;;;;;;;2.08;1.88;;;20.70;63.10;;;;;;4996466;28;20049;-60
2023/06/17 03:45:17;;;;;;;2.17;1.98;;;20.80;63.10;;;;;;4993274;28;20562;-58
2023/06/17 03:47:42;;;;;;;2.13;1.90;;;20.80;63.10;;;;;;5001446;28;20375;-63
2023/06/17 03:50:08;;;;;;;2.45;2.22;;;20.70;63.00;;;;;;4992841;28;20033;-60
2023/06/17 03:52:34;;;;;;;2.88;1.80;;;20.80;63.00;;;;;;4991376;28;20105;-62
2023/06/17 03:54:59;;;;;;;1.70;1.60;;;20.80;63.10;;;;;;4992785;28;20105;-62
2023/06/17 03:57:25;;;;;;;2.22;2.03;;;20.80;63.10;;;;;;4985719;28;20033;-61
2023/06/17 03:59:51;;;;;;;2.60;2.40;;;20.80;63.10;;;;;;4994371;28;20030;-63
2023/06/17 04:02:16;;;;;;;2.40;2.10;;;20.80;63.50;;;;;;4993548;28;20040;-62
2023/06/17 04:04:42;;;;;;;2.35;1.90;;;20.80;63.10;;;;;;4990869;28;20117;-59
2023/06/17 04:07:08;;;;;;;2.65;2.08;;;20.80;63.10;;;;;;4988458;28;20117;-59
2023/06/17 04:09:34;;;;;;;2.58;2.30;;;20.70;63.00;;;;;;4991649;28;20403;-60
2023/06/17 04:12:00;;;;;;;2.70;2.40;;;20.80;63.00;;;;;;4992535;28;20471;-64
2023/06/17 04:14:25;;;;;;;2.50;2.30;;;20.70;63.00;;;;;;4992937;28;20050;-63
2023/06/17 04:16:51;;;;;;;2.45;2.20;;;20.80;63.10;;;;;;4990733;28;20036;-62
2023/06/17 04:19:17;;;;;;;2.08;1.90;;;20.80;63.10;;;;;;4989680;28;20076;-61
2023/06/17 04:21:43;;;;;;;2.28;2.03;;;20.80;63.10;;;;;;4992121;28;20068;-62
2023/06/17 04:24:09;;;;;;;2.17;1.98;;;20.80;63.10;;;;;;4991891;28;20038;-62
2023/06/17 04:26:35;;;;;;;2.20;2.00;;;20.80;63.10;;;;;;4990483;28;20031;-61
2023/06/17 04:29:01;;;;;;;2.70;2.22;;;20.70;63.00;;;;;;4995296;28;20045;-60
2023/06/17 04:31:29;;;;;;;2.58;1.90;;;20.70;63.80;;;;;;4992322;28;20124;-60
2023/06/17 04:33:55;;;;;;;2.83;2.30;;;20.70;63.10;;;;;;4992075;28;20022;-61
2023/06/17 04:36:23;;;;;;;2.70;1.88;;;20.70;63.10;;;;;;4994458;28;20061;-62
2023/06/17 04:38:49;;;;;;;2.97;2.08;;;20.70;63.10;;;;;;4991499;28;20701;-62
2023/06/17 04:41:16;;;;;;;2.30;2.10;;;20.70;63.20;;;;;;4990917;28;20447;-61
2023/06/17 04:43:45;;;;;;;2.75;2.42;;;20.80;63.20;;;;;;4991109;28;20133;-62
2023/06/17 04:46:12;;;;;;;2.35;2.15;;;20.70;63.00;;;;;;4991555;28;20030;-61
2023/06/17 04:48:38;;;;;;;2.20;2.03;;;20.70;63.00;;;;;;4992349;28;20515;-63
2023/06/17 04:51:05;;;;;;;2.13;2.00;;;20.70;63.00;;;;;;4996099;28;20034;-62
2023/06/17 04:53:31;;;;;;;2.17;1.98;;;20.70;63.10;;;;;;4990626;28;20030;-63
2023/06/17 04:55:57;;;;;;;3.13;2.33;;;20.80;63.20;;;;;;4989676;28;20030;-62
2023/06/17 04:58:22;;;;;;;3.30;2.33;;;20.70;63.80;;;;;;4992287;28;20034;-61
2023/06/17 05:00:48;;;;;;;2.10;2.00;;;20.70;63.10;;;;;;4990800;28;20038;-63
2023/06/17 05:03:13;;;;;;;2.17;1.98;;;20.70;62.90;;;;;;4992078;28;20034;-61
2023/06/17 05:05:39;;;;;;;2.50;2.30;;;20.80;63.00;;;;;;4990451;28;20062;-61
2023/06/17 05:08:05;;;;;;;3.58;2.33;;;20.80;63.00;;;;;;4993109;28;20026;-61
2023/06/17 05:10:30;;;;;;;2.53;2.00;;;20.80;63.00;;;;;;4992126;28;20112;-61
2023/06/17 05:12:56;;;;;;;1.92;1.73;;;20.70;63.10;;;;;;4991072;28;20023;-62
2023/06/17 05:15:21;;;;;;;2.20;2.00;;;20.80;63.20;;;;;;4992386;28;20040;-62
2023/06/17 05:17:46;;;;;;;2.40;2.20;;;20.70;63.10;;;;;;4993318;28;20117;-62
2023/06/17 05:20:12;;;;;;;1.77;1.67;;;20.70;63.10;;;;;;4991453;28;20554;-63
2023/06/17 05:22:38;;;;;;;2.42;2.17;;;20.70;63.00;;;;;;4991674;28;20124;-62
2023/06/17 05:25:04;;;;;;;2.55;2.33;;;20.80;63.00;;;;;;4989335;28;20030;-61
2023/06/17 05:27:29;;;;;;;2.40;2.20;;;20.80;63.00;;;;;;4994015;28;20034;-62
2023/06/17 05:29:55;;;;;;;2.78;2.35;;;20.80;63.00;;;;;;4987130;28;20410;-61
2023/06/17 05:32:22;;;;;;;3.13;2.30;;;20.80;63.00;;;;;;4990469;28;20105;-62
2023/06/17 05:34:48;;;;;;;2.80;2.42;;;20.80;63.00;;;;;;4987202;28;20038;-60
2023/06/17 05:37:14;;;;;;;2.17;1.98;;;20.80;63.10;;;;;;4986446;28;20081;-61
2023/06/17 05:39:40;;;;;;;2.20;1.95;;;20.80;63.10;;;;;;4990408;28;20104;-61
2023/06/17 05:42:05;;;;;;;2.60;2.40;;;20.80;63.10;;;;;;4989729;28;20516;-61
2023/06/17 05:44:31;;;;;;;2.28;2.08;;;20.80;63.80;;;;;;4990092;28;20076;-62
2023/06/17 05:46:56;;;;;;;2.85;2.03;;;20.80;63.30;;;;;;4995393;28;20668;-61
2023/06/17 05:49:22;;;;;;;2.33;1.75;;;20.80;63.20;;;;;;4994585;28;20469;-61
2023/06/17 05:51:47;;;;;;;3.15;2.60;;;20.80;63.20;;;;;;4994815;28;20035;-63
2023/06/17 05:54:13;;;;;;;2.90;2.30;;;20.80;63.20;;;;;;4989525;28;20405;-62
2023/06/17 05:56:38;;;;;;;2.33;2.13;;;20.80;63.20;;;;;;4995153;28;20027;-62
2023/06/17 05:59:04;;;;;;;2.58;2.38;;;20.70;63.20;;;;;;4995044;28;20592;-62
2023/06/17 06:01:29;;;;;;;2.42;2.22;;;20.80;63.20;;;;;;4993649;28;20114;-62
2023/06/17 06:03:55;;;;;;;2.80;2.42;;;20.80;63.20;;;;;;4996743;28;20029;-61
2023/06/17 06:06:21;;;;;;;2.40;2.10;;;20.80;63.90;;;;;;5000735;28;20050;-61
2023/06/17 06:08:46;;;;;;;3.72;2.67;;;20.70;63.30;;;;;;5014371;28;20128;-60
2023/06/17 06:11:12;;;;;;;2.70;2.45;;;20.80;63.30;;;;;;5016506;28;20038;-61
2023/06/17 06:13:37;;;;;;;2.42;2.20;;;20.80;63.40;;;;;;4993670;28;20054;-64
2023/06/17 06:16:03;;;;;;;3.05;2.22;;;20.80;63.30;;;;;;4996584;28;20013;-61
2023/06/17 06:18:29;;;;;;;3.22;2.90;;;20.80;63.40;;;;;;4993962;28;20752;-61
2023/06/17 06:20:55;;;;;;;2.70;2.47;;;20.80;63.40;;;;;;4993907;28;20022;-61
2023/06/17 06:23:20;;;;;;;2.50;2.30;;;20.80;63.40;;;;;;4989954;28;20077;-61
2023/06/17 06:25:46;;;;;;;3.30;2.53;;;20.80;63.30;;;;;;4989431;28;20029;-61
2023/06/17 06:28:11;;;;;;;5.10;3.00;;;20.80;63.30;;;;;;4996499;28;20038;-61
2023/06/17 06:30:37;;;;;;;2.80;2.50;;;20.70;63.40;;;;;;4994695;28;20268;-61
2023/06/17 06:33:02;;;;;;;2.88;2.67;;;20.70;63.40;;;;;;5000403;28;20045;-61
2023/06/17 06:35:28;;;;;;;3.53;3.00;;;20.80;63.40;;;;;;4993607;28;20097;-61
2023/06/17 06:37:53;;;;;;;3.65;3.03;;;20.80;63.50;;;;;;4990878;28;20164;-62
2023/06/17 06:40:19;;;;;;;3.28;2.97;;;20.80;63.50;;;;;;4988128;28;20433;-62
2023/06/17 06:42:45;;;;;;;3.35;2.97;;;20.80;63.50;;;;;;4992087;28;20069;-62
2023/06/17 06:45:11;;;;;;;4.65;3.08;;;20.80;63.60;;;;;;4992512;28;20562;-61
2023/06/17 06:47:36;;;;;;;3.78;3.47;;;20.80;63.50;;;;;;4993821;28;20117;-62
2023/06/17 06:50:02;;;;;;;5.05;3.72;;;20.80;63.50;;;;;;4991954;28;20499;-61
2023/06/17 06:52:28;;;;;;;3.53;3.22;;;20.80;63.50;;;;;;4993480;28;20037;-61
2023/06/17 06:54:53;;;;;;;4.40;3.97;;;20.80;63.50;;;;;;4993336;28;20375;-62
2023/06/17 06:57:19;;;;;;;4.53;3.40;;;20.80;63.50;;;;;;4995227;28;20038;-62
2023/06/17 06:59:44;;;;;;;3.80;3.40;;;20.80;63.60;;;;;;4992350;28;20078;-62
2023/06/17 07:02:11;;;;;;;4.15;3.55;;;20.80;63.60;;;;;;4989867;28;20038;-61
2023/06/17 07:04:37;;;;;;;3.95;3.58;;;20.80;63.70;;;;;;4995594;28;20041;-61
2023/06/17 07:07:03;;;;;;;4.22;3.50;;;20.80;63.60;;;;;;4991580;28;20116;-60
2023/06/17 07:09:28;;;;;;;5.40;4.35;;;20.80;63.70;;;;;;4991861;28;20037;-61
2023/06/17 07:11:54;;;;;;;4.68;3.97;;;20.80;63.70;;;;;;4995556;28;20172;-61
2023/06/17 07:14:19;;;;;;;4.00;3.55;;;20.80;63.80;;;;;;4989098;28;20038;-62
2023/06/17 07:16:45;;;;;;;5.85;3.80;;;20.80;63.80;;;;;;4988721;28;20034;-62
2023/06/17 07:19:10;;;;;;;4.80;4.40;;;20.80;63.80;;;;;;4993941;28;20038;-60
2023/06/17 07:21:36;;;;;;;4.32;3.92;;;20.80;63.70;;;;;;4990193;28;20022;-62
2023/06/17 07:24:01;;;;;;;4.22;3.80;;;20.80;63.80;;;;;;4990422;28;20471;-62
2023/06/17 07:26:27;;;;;;;4.53;4.13;;;20.80;63.80;;;;;;4990684;28;20053;-61
2023/06/17 07:28:53;;;;;;;5.43;3.88;;;20.80;63.80;;;;;;4994661;28;20097;-62
2023/06/17 07:31:18;;;;;;;4.82;4.30;;;20.80;63.70;;;;;;4985652;28;20034;-62
2023/06/17 07:33:44;;;;;;;5.13;4.25;;;20.80;63.70;;;;;;4995006;28;20045;-62
2023/06/17 07:36:10;;;;;;;4.90;4.35;;;20.80;63.70;;;;;;4989346;28;20034;-61
2023/06/17 07:38:36;;;;;;;4.72;4.20;;;20.80;63.60;;;;;;4989156;28;20038;-62
2023/06/17 07:41:01;;;;;;;6.70;4.38;;;20.80;63.60;;;;;;4990949;28;20633;-62
2023/06/17 07:43:27;;;;;;;6.43;4.20;;;20.80;63.60;;;;;;4993876;28;20105;-62
2023/06/17 07:45:52;;;;;;;6.40;4.78;;;20.80;63.60;;;;;;4991196;28;20077;-62
2023/06/17 07:48:33;;;;;;;4.38;3.97;;;20.80;63.80;;;;;;4992307;28;20239;-61
2023/06/17 07:50:59;;;;;;;5.35;4.85;;;20.80;63.90;;;;;;4985235;28;20030;-62
2023/06/17 07:53:24;;;;;;;6.03;5.43;;;20.80;63.90;;;;;;4993906;28;20036;-61
2023/06/17 07:55:51;;;;;;;6.22;4.68;;;20.80;64.00;;;;;;4988440;28;20059;-62
2023/06/17 07:58:17;;;;;;;5.88;4.78;;;20.80;64.00;;;;;;4989810;28;20034;-61
2023/06/17 08:00:42;;;;;;;8.00;5.28;;;20.80;64.00;;;;;;4991030;28;20045;-61
2023/06/17 08:03:08;;;;;;;6.00;5.38;;;20.80;63.90;;;;;;4993863;28;20026;-61
2023/06/17 08:05:33;;;;;;;5.80;5.30;;;20.80;64.20;;;;;;4989496;28;20113;-62
2023/06/17 08:07:59;;;;;;;6.13;5.53;;;20.80;64.20;;;;;;4995789;28;20113;-61
2023/06/17 08:10:24;;;;;;;6.80;4.88;;;20.80;64.10;;;;;;4991367;28;20046;-61
2023/06/17 08:12:50;;;;;;;6.45;5.50;;;20.80;64.10;;;;;;4994407;28;20041;-62
2023/06/17 08:15:15;;;;;;;5.72;5.18;;;20.80;64.10;;;;;;4989040;28;20053;-62
2023/06/17 08:17:42;;;;;;;5.93;5.10;;;20.80;64.10;;;;;;4987603;28;20600;-63
2023/06/17 08:20:09;;;;;;;6.47;5.88;;;20.80;64.00;;;;;;4988262;28;20026;-61
2023/06/17 08:22:36;;;;;;;6.47;5.88;;;20.80;64.00;;;;;;4986670;28;20092;-62
2023/06/17 08:25:01;;;;;;;6.18;5.20;;;20.80;64.00;;;;;;4992879;28;20512;-61
2023/06/17 08:27:27;;;;;;;5.72;4.95;;;20.80;63.90;;;;;;4999008;28;20109;-61
2023/06/17 08:29:53;;;;;;;6.20;5.03;;;20.80;63.90;;;;;;4993963;28;20116;-61
2023/06/17 08:32:18;;;;;;;5.60;5.07;;;20.80;63.90;;;;;;4990138;28;20034;-62
2023/06/17 08:34:44;;;;;;;8.63;5.60;;;20.80;63.90;;;;;;4991059;28;20030;-62
2023/06/17 08:37:09;;;;;;;5.63;4.88;;;20.80;63.80;;;;;;4988376;28;20050;-62
2023/06/17 08:39:39;;;;;;;5.68;5.13;;;20.80;63.90;;;;;;4990391;28;20712;-60
2023/06/17 08:42:07;;;;;;;5.70;4.80;;;20.80;63.90;;;;;;4990250;28;20292;-62
2023/06/17 08:44:33;;;;;;;5.75;5.22;;;20.80;63.90;;;;;;4988259;28;20114;-62
2023/06/17 08:47:03;;;;;;;5.70;4.63;;;20.80;63.90;;;;;;4993765;28;20188;-61
2023/06/17 08:49:29;;;;;;;6.38;5.00;;;20.80;63.90;;;;;;4989974;28;20041;-62
2023/06/17 08:51:56;;;;;;;6.85;4.80;;;20.80;63.90;;;;;;4994129;28;20030;-62
2023/06/17 08:54:22;;;;;;;5.15;4.65;;;20.80;63.80;;;;;;4994755;28;20034;-61
2023/06/17 08:56:48;;;;;;;6.57;4.55;;;20.80;63.70;;;;;;4988048;28;20030;-62
2023/06/17 08:59:13;;;;;;;5.38;4.88;;;20.80;63.80;;;;;;4995230;28;20451;-60
2023/06/17 09:01:42;;;;;;;5.97;4.78;;;20.80;63.80;;;;;;4989277;28;20201;-61
2023/06/17 09:04:08;;;;;;;5.80;4.75;;;20.80;63.80;;;;;;4992325;28;20029;-61
2023/06/17 09:06:33;;;;;;;5.68;5.03;;;20.80;63.70;;;;;;4989267;28;20033;-61
2023/06/17 09:08:59;;;;;;;5.75;4.88;;;20.80;63.70;;;;;;4995477;28;20076;-62
2023/06/17 09:11:26;;;;;;;7.50;4.80;;;20.70;63.60;;;;;;4991118;28;20644;-61
2023/06/17 09:13:52;;;;;;;5.22;4.72;;;20.80;63.80;;;;;;4996478;28;20031;-62
2023/06/17 09:16:27;;;;;;;4.55;4.15;;;20.80;63.70;;;;;;4990878;28;20030;-62
2023/06/17 09:19:01;;;;;;;5.30;4.80;;;20.80;63.70;;;;;;4990138;28;20022;-61
2023/06/17 09:21:27;;;;;;;5.63;5.00;;;20.80;63.70;;;;;;4991493;28;20269;-63
2023/06/17 09:24:04;;;;;;;5.60;4.82;;;20.80;63.70;;;;;;4995299;28;20042;-62
2023/06/17 09:26:41;;;;;;;6.97;5.25;;;20.80;63.60;;;;;;4996047;28;20060;-62
2023/06/17 09:29:08;;;;;;;4.72;4.32;;;20.80;63.60;;;;;;5000636;28;20085;-60
2023/06/17 09:31:50;;;;;;;5.07;4.68;;;20.80;63.90;;;;;;4994546;28;20495;-61
2023/06/17 09:34:16;;;;;;;5.10;4.35;;;20.80;63.60;;;;;;4994959;28;20061;-63
2023/06/17 09:36:42;;;;;;;5.00;4.50;;;20.80;63.60;;;;;;4993111;28;20041;-69
2023/06/17 09:39:12;;;;;;;5.57;5.07;;;20.80;63.60;;;;;;4993777;28;20026;-63
2023/06/17 09:41:42;;;;;;;4.80;4.30;;;20.80;63.50;;;;;;4995042;28;20034;-63
2023/06/17 09:44:08;;;;;;;4.97;4.57;;;20.70;63.40;;;;;;4991275;28;20026;-62
2023/06/17 09:46:39;;;;;;;4.65;4.25;;;20.80;63.50;;;;;;4991375;28;20026;-62
2023/06/17 09:49:15;;;;;;;4.63;4.22;;;20.80;63.50;;;;;;4994710;28;20026;-61
2023/06/17 09:51:42;;;;;;;4.65;4.25;;;20.80;63.50;;;;;;4989194;28;20042;-64
2023/06/17 09:54:09;;;;;;;5.22;4.72;;;20.70;63.40;;;;;;4994639;28;20061;-62
2023/06/17 09:56:36;;;;;;;5.15;4.65;;;20.70;63.40;;;;;;4997612;28;20026;-62
2023/06/17 09:59:08;;;;;;;4.22;3.83;;;20.70;63.40;;;;;;4993711;28;20068;-64
2023/06/17 10:01:38;;;;;;;5.00;4.38;;;20.70;63.40;;;;;;4995095;28;20042;-63
2023/06/17 10:04:04;;;;;;;4.70;4.30;;;20.80;63.50;;;;;;4993860;28;20089;-62
2023/06/17 10:06:32;;;;;;;4.57;4.18;;;20.80;63.40;;;;;;5006528;28;20025;-62
2023/06/17 10:08:58;;;;;;;4.53;4.13;;;20.70;63.30;;;;;;5009351;28;20830;-61
2023/06/17 10:11:25;;;;;;;4.72;4.32;;;20.70;63.30;;;;;;5005605;28;20415;-63
2023/06/17 10:14:01;;;;;;;4.70;4.30;;;20.80;63.40;;;;;;4995358;28;20403;-61
2023/06/17 10:16:31;;;;;;;4.28;3.97;;;20.80;63.40;;;;;;4994382;28;20030;-61
2023/06/17 10:19:00;;;;;;;4.55;4.15;;;20.80;63.40;;;;;;4992385;28;20107;-62
2023/06/17 10:21:28;;;;;;;4.35;3.92;;;20.80;63.30;;;;;;4994392;28;20037;-62
2023/06/17 10:23:55;;;;;;;4.28;3.97;;;20.80;63.30;;;;;;4996993;28;20044;-63
2023/06/17 10:26:21;;;;;;;4.15;3.85;;;20.80;63.30;;;;;;4992747;28;20038;-61
2023/06/17 10:28:53;;;;;;;4.75;3.92;;;20.80;63.30;;;;;;4995140;28;20049;-63
2023/06/17 10:31:24;;;;;;;5.05;4.60;;;20.80;63.30;;;;;;4992845;28;20121;-62
2023/06/17 10:33:52;;;;;;;4.43;4.03;;;20.80;63.30;;;;;;4994404;28;20038;-63
2023/06/17 10:36:20;;;;;;;4.28;3.88;;;20.80;63.30;;;;;;4992005;28;20038;-62
2023/06/17 10:38:57;;;;;;;4.40;4.00;;;20.80;63.40;;;;;;4995173;28;20037;-60
2023/06/17 10:41:44;;;;;;;3.90;3.60;;;20.80;63.30;;;;;;4992136;28;20611;-62
2023/06/17 10:44:34;;;;;;;7.78;4.78;;;20.80;63.20;;;;;;4992806;28;20077;-61
2023/06/17 10:47:01;;;;;;;4.93;4.28;;;20.80;63.20;;;;;;4990432;28;20407;-61
2023/06/17 10:49:39;;;;;;;4.35;3.95;;;20.80;63.20;;;;;;4993932;28;20022;-62
2023/06/17 10:52:05;;;;;;;4.40;4.03;;;20.80;63.30;;;;;;4995460;28;20149;-62
2023/06/17 10:54:32;;;;;;;4.35;3.95;;;20.80;63.20;;;;;;4990613;28;20105;-62
2023/06/17 10:57:01;;;;;;;4.82;4.32;;;20.80;63.20;;;;;;4996260;28;20077;-59
2023/06/17 10:59:31;;;;;;;4.50;4.10;;;20.80;63.20;;;;;;4994519;28;20057;-64
2023/06/17 11:02:06;;;;;;;4.03;3.63;;;20.80;63.20;;;;;;4991759;28;20034;-64
2023/06/17 11:04:34;;;;;;;4.25;3.95;;;20.80;63.20;;;;;;4992670;28;20239;-60
2023/06/17 11:07:00;;;;;;;4.97;3.35;;;20.80;63.20;;;;;;4990168;28;20026;-63
2023/06/17 11:09:27;;;;;;;4.70;4.30;;;20.80;63.20;;;;;;4991507;28;20400;-61
2023/06/17 11:12:00;;;;;;;3.88;3.58;;;20.80;63.20;;;;;;4997396;28;20027;-63
2023/06/17 11:14:30;;;;;;;4.57;4.18;;;20.80;63.20;;;;;;4991821;28;20038;-62
2023/06/17 11:16:56;;;;;;;4.18;3.78;;;20.80;63.20;;;;;;4991327;28;20033;-61
2023/06/17 11:19:22;;;;;;;4.32;3.92;;;20.80;63.20;;;;;;4990558;28;20026;-62
2023/06/17 11:21:57;;;;;;;4.40;4.00;;;20.80;63.20;;;;;;4991446;28;20049;-61
2023/06/17 11:24:23;;;;;;;4.43;4.03;;;20.80;63.20;;;;;;4992069;28;20030;-59
2023/06/17 11:26:48;;;;;;;4.20;3.80;;;20.80;63.20;;;;;;4993612;28;20033;-58
2023/06/17 11:29:14;;;;;;;4.38;3.97;;;20.80;63.10;;;;;;4995057;28;20030;-62
2023/06/17 11:31:40;;;;;;;4.07;3.70;;;20.80;63.20;;;;;;4995091;28;20588;-63
2023/06/17 11:34:06;;;;;;;4.05;3.75;;;20.80;63.10;;;;;;4990274;28;20022;-63
2023/06/17 11:36:33;;;;;;;3.65;3.38;;;20.80;63.10;;;;;;4994154;28;20031;-63
2023/06/17 11:38:59;;;;;;;4.40;4.10;;;20.80;63.10;;;;;;4990693;28;20034;-60
2023/06/17 11:41:25;;;;;;;4.55;4.15;;;20.80;63.10;;;;;;4995722;28;20037;-59
2023/06/17 11:43:51;;;;;;;3.95;3.65;;;20.80;63.10;;;;;;4992133;28;20045;-63
2023/06/17 11:46:21;;;;;;;3.95;3.65;;;20.80;63.30;;;;;;4991374;28;20040;-60
2023/06/17 11:48:48;;;;;;;4.10;3.75;;;20.80;63.00;;;;;;4993474;28;20026;-63
2023/06/17 11:51:16;;;;;;;3.80;3.47;;;20.80;63.00;;;;;;4994669;28;20033;-61
2023/06/17 11:53:45;;;;;;;4.47;4.18;;;20.80;63.00;;;;;;4994927;28;20030;-62
2023/06/17 11:56:12;;;;;;;4.03;3.72;;;20.80;63.00;;;;;;4994534;28;20036;-63
2023/06/17 11:58:42;;;;;;;3.83;3.53;;;20.80;63.00;;;;;;4991611;28;20548;-59
2023/06/17 12:01:13;;;;;;;4.35;3.95;;;20.80;63.10;;;;;;4994591;28;20045;-63
2023/06/17 12:03:38;;;;;;;4.07;3.78;;;20.80;63.00;;;;;;4992539;28;20130;-63
2023/06/17 12:06:04;;;;;;;3.95;3.65;;;20.80;63.00;;;;;;4980293;28;20124;-59
2023/06/17 12:08:37;;;;;;;4.57;4.18;;;20.80;63.00;;;;;;5009146;28;20038;-61
2023/06/17 12:11:22;;;;;;;4.50;4.10;;;20.80;63.00;;;;;;4996229;28;20054;-60
2023/06/17 12:13:50;;;;;;;4.00;3.70;;;20.80;63.00;;;;;;4988853;28;20125;-60
2023/06/17 12:16:31;;;;;;;4.13;3.75;;;20.80;63.00;;;;;;4994268;28;20033;-59
2023/06/17 12:18:57;;;;;;;4.38;3.97;;;20.80;63.00;;;;;;4993148;28;20392;-63
2023/06/17 12:21:24;;;;;;;3.97;3.67;;;20.80;63.00;;;;;;4987210;28;20038;-62
2023/06/17 12:23:51;;;;;;;5.03;4.47;;;20.80;63.00;;;;;;4990739;28;20060;-62
2023/06/17 12:26:18;;;;;;;3.78;3.47;;;20.80;63.00;;;;;;4990205;28;20030;-66
2023/06/17 12:28:44;;;;;;;4.32;3.95;;;20.80;63.00;;;;;;4994649;28;20113;-62
2023/06/17 12:31:10;;;;;;;4.60;4.20;;;20.80;63.00;;;;;;4991766;28;20050;-63
2023/06/17 12:33:36;;;;;;;4.95;4.45;;;20.80;63.00;;;;;;4988786;28;25387;-58
2023/06/17 12:36:04;;;;;;;4.32;3.92;;;20.80;63.00;;;;;;4984881;28;20041;-61
2023/06/17 12:38:30;;;;;;;4.28;3.97;;;20.80;63.00;;;;;;4987031;28;20798;-62
2023/06/17 12:40:59;;;;;;;4.13;3.80;;;20.80;62.90;;;;;;4984116;28;20049;-64
2023/06/17 12:43:25;;;;;;;4.05;3.75;;;20.80;62.90;;;;;;4988421;28;20686;-62
2023/06/17 12:45:50;;;;;;;4.50;4.10;;;20.80;63.60;;;;;;4992099;28;20038;-62
2023/06/17 12:48:16;;;;;;;4.00;3.70;;;20.80;62.90;;;;;;4990208;28;20026;-61
2023/06/17 12:50:42;;;;;;;4.22;3.83;;;20.80;63.00;;;;;;4990861;28;20600;-64